sensor_id;sensor_type;location;lat;lon;timestamp;P1;durP1;ratioP1;P2;durP2;ratioP2
11016;SDS011;54687;50.800;6.772;2022-09-12T00:01:25;10.23;;;9.32;;
11016;SDS011;54687;50.800;6.772;2022-09-12T00:03:52;10.70;;;9.70;;
11016;SDS011;54687;50.800;6.772;2022-09-12T00:06:21;11.88;;;10.88;;
11016;SDS011;54687;50.800;6.772;2022-09-12T00:08:53;11.23;;;10.23;;
11016;SDS011;54687;50.800;6.772;2022-09-12T00:11:21;11.43;;;10.52;;
11016;SDS011;54687;50.800;6.772;2022-09-12T00:13:48;11.10;;;10.20;;
11016;SDS011;54687;50.800;6.772;2022-09-12T00:16:16;12.88;;;11.55;;
11016;SDS011;54687;50.800;6.772;2022-09-12T00:18:44;12.32;;;11.32;;
11016;SDS011;54687;50.800;6.772;2022-09-12T00:21:11;11.93;;;10.82;;
11016;SDS011;54687;50.800;6.772;2022-09-12T00:23:39;12.55;;;11.52;;
11016;SDS011;54687;50.800;6.772;2022-09-12T00:26:07;13.10;;;12.00;;
11016;SDS011;54687;50.800;6.772;2022-09-12T00:28:35;14.02;;;12.73;;
11016;SDS011;54687;50.800;6.772;2022-09-12T00:31:04;14.10;;;12.90;;
11016;SDS011;54687;50.800;6.772;2022-09-12T00:33:32;13.30;;;12.20;;
11016;SDS011;54687;50.800;6.772;2022-09-12T00:35:58;12.25;;;11.15;;
11016;SDS011;54687;50.800;6.772;2022-09-12T00:38:29;13.57;;;12.27;;
11016;SDS011;54687;50.800;6.772;2022-09-12T00:40:55;13.55;;;12.45;;
11016;SDS011;54687;50.800;6.772;2022-09-12T00:43:34;13.95;;;12.85;;
11016;SDS011;54687;50.800;6.772;2022-09-12T00:46:04;12.05;;;11.05;;
11016;SDS011;54687;50.800;6.772;2022-09-12T00:48:38;13.95;;;12.82;;
11016;SDS011;54687;50.800;6.772;2022-09-12T00:51:09;13.18;;;12.13;;
11016;SDS011;54687;50.800;6.772;2022-09-12T00:53:37;14.63;;;13.40;;
11016;SDS011;54687;50.800;6.772;2022-09-12T00:56:05;13.35;;;12.35;;
11016;SDS011;54687;50.800;6.772;2022-09-12T00:58:34;14.50;;;13.10;;
11016;SDS011;54687;50.800;6.772;2022-09-12T01:01:04;14.27;;;13.00;;
11016;SDS011;54687;50.800;6.772;2022-09-12T01:03:31;13.75;;;12.65;;
11016;SDS011;54687;50.800;6.772;2022-09-12T01:06:00;13.82;;;12.63;;
11016;SDS011;54687;50.800;6.772;2022-09-12T01:08:31;14.13;;;12.93;;
11016;SDS011;54687;50.800;6.772;2022-09-12T01:10:59;13.82;;;12.52;;
11016;SDS011;54687;50.800;6.772;2022-09-12T01:13:26;13.45;;;12.35;;
11016;SDS011;54687;50.800;6.772;2022-09-12T01:15:55;13.25;;;12.18;;
11016;SDS011;54687;50.800;6.772;2022-09-12T01:18:24;12.45;;;11.40;;
11016;SDS011;54687;50.800;6.772;2022-09-12T01:21:08;13.15;;;12.02;;
11016;SDS011;54687;50.800;6.772;2022-09-12T01:26:49;13.38;;;12.27;;
11016;SDS011;54687;50.800;6.772;2022-09-12T01:29:37;14.23;;;13.07;;
11016;SDS011;54687;50.800;6.772;2022-09-12T01:32:25;13.75;;;12.45;;
11016;SDS011;54687;50.800;6.772;2022-09-12T01:35:01;14.10;;;12.75;;
11016;SDS011;54687;50.800;6.772;2022-09-12T01:37:36;14.48;;;13.27;;
11016;SDS011;54687;50.800;6.772;2022-09-12T01:40:15;12.20;;;11.20;;
11016;SDS011;54687;50.800;6.772;2022-09-12T01:42:49;13.27;;;12.07;;
11016;SDS011;54687;50.800;6.772;2022-09-12T01:45:21;12.65;;;11.55;;
11016;SDS011;54687;50.800;6.772;2022-09-12T01:47:55;12.60;;;11.60;;
11016;SDS011;54687;50.800;6.772;2022-09-12T01:50:28;13.65;;;12.48;;
11016;SDS011;54687;50.800;6.772;2022-09-12T01:52:58;13.80;;;12.55;;
11016;SDS011;54687;50.800;6.772;2022-09-12T01:55:31;12.63;;;11.52;;
11016;SDS011;54687;50.800;6.772;2022-09-12T01:58:02;13.98;;;12.88;;
11016;SDS011;54687;50.800;6.772;2022-09-12T02:00:33;13.45;;;12.35;;
11016;SDS011;54687;50.800;6.772;2022-09-12T02:03:06;13.40;;;12.20;;
11016;SDS011;54687;50.800;6.772;2022-09-12T02:05:37;13.65;;;12.35;;
11016;SDS011;54687;50.800;6.772;2022-09-12T02:08:09;13.80;;;12.60;;
11016;SDS011;54687;50.800;6.772;2022-09-12T02:10:40;14.07;;;12.77;;
11016;SDS011;54687;50.800;6.772;2022-09-12T02:13:12;13.45;;;12.35;;
11016;SDS011;54687;50.800;6.772;2022-09-12T02:15:43;13.77;;;12.57;;
11016;SDS011;54687;50.800;6.772;2022-09-12T02:18:15;16.75;;;15.25;;
11016;SDS011;54687;50.800;6.772;2022-09-12T02:20:46;15.02;;;13.63;;
11016;SDS011;54687;50.800;6.772;2022-09-12T02:23:15;13.77;;;12.48;;
11016;SDS011;54687;50.800;6.772;2022-09-12T02:25:45;13.93;;;12.63;;
11016;SDS011;54687;50.800;6.772;2022-09-12T02:28:16;14.70;;;13.43;;
11016;SDS011;54687;50.800;6.772;2022-09-12T02:30:49;14.70;;;13.48;;
11016;SDS011;54687;50.800;6.772;2022-09-12T02:33:28;14.93;;;13.57;;
11016;SDS011;54687;50.800;6.772;2022-09-12T02:36:03;14.68;;;13.48;;
11016;SDS011;54687;50.800;6.772;2022-09-12T02:38:39;16.65;;;15.15;;
11016;SDS011;54687;50.800;6.772;2022-09-12T02:41:11;15.93;;;14.35;;
11016;SDS011;54687;50.800;6.772;2022-09-12T02:43:41;15.43;;;13.82;;
11016;SDS011;54687;50.800;6.772;2022-09-12T02:46:09;14.80;;;13.60;;
11016;SDS011;54687;50.800;6.772;2022-09-12T02:48:42;14.15;;;12.95;;
11016;SDS011;54687;50.800;6.772;2022-09-12T02:51:09;14.80;;;13.50;;
11016;SDS011;54687;50.800;6.772;2022-09-12T02:53:36;14.88;;;13.68;;
11016;SDS011;54687;50.800;6.772;2022-09-12T02:56:04;14.70;;;13.50;;
11016;SDS011;54687;50.800;6.772;2022-09-12T02:58:36;14.90;;;13.70;;
11016;SDS011;54687;50.800;6.772;2022-09-12T03:01:05;13.90;;;12.68;;
11016;SDS011;54687;50.800;6.772;2022-09-12T03:03:43;14.70;;;13.38;;
11016;SDS011;54687;50.800;6.772;2022-09-12T03:06:23;15.88;;;14.48;;
11016;SDS011;54687;50.800;6.772;2022-09-12T03:08:59;15.88;;;14.48;;
11016;SDS011;54687;50.800;6.772;2022-09-12T03:11:43;16.13;;;14.63;;
11016;SDS011;54687;50.800;6.772;2022-09-12T03:14:23;15.38;;;13.98;;
11016;SDS011;54687;50.800;6.772;2022-09-12T03:17:03;15.00;;;13.63;;
11016;SDS011;54687;50.800;6.772;2022-09-12T03:19:40;15.63;;;14.25;;
11016;SDS011;54687;50.800;6.772;2022-09-12T03:22:18;15.45;;;13.95;;
11016;SDS011;54687;50.800;6.772;2022-09-12T03:24:52;14.68;;;13.38;;
11016;SDS011;54687;50.800;6.772;2022-09-12T03:27:26;15.43;;;13.90;;
11016;SDS011;54687;50.800;6.772;2022-09-12T03:29:56;13.82;;;12.52;;
11016;SDS011;54687;50.800;6.772;2022-09-12T03:32:40;15.05;;;13.75;;
11016;SDS011;54687;50.800;6.772;2022-09-12T03:35:10;15.23;;;13.82;;
11016;SDS011;54687;50.800;6.772;2022-09-12T03:37:37;15.18;;;13.77;;
11016;SDS011;54687;50.800;6.772;2022-09-12T03:40:04;16.38;;;14.90;;
11016;SDS011;54687;50.800;6.772;2022-09-12T03:42:32;15.75;;;14.35;;
11016;SDS011;54687;50.800;6.772;2022-09-12T03:44:59;15.48;;;13.98;;
11016;SDS011;54687;50.800;6.772;2022-09-12T03:47:26;16.10;;;14.40;;
11016;SDS011;54687;50.800;6.772;2022-09-12T03:49:53;16.40;;;14.95;;
11016;SDS011;54687;50.800;6.772;2022-09-12T03:52:23;15.40;;;13.98;;
11016;SDS011;54687;50.800;6.772;2022-09-12T03:54:50;15.88;;;14.25;;
11016;SDS011;54687;50.800;6.772;2022-09-12T03:57:17;15.90;;;14.50;;
11016;SDS011;54687;50.800;6.772;2022-09-12T03:59:46;16.42;;;14.93;;
11016;SDS011;54687;50.800;6.772;2022-09-12T04:02:13;15.98;;;14.57;;
11016;SDS011;54687;50.800;6.772;2022-09-12T04:04:40;15.68;;;14.18;;
11016;SDS011;54687;50.800;6.772;2022-09-12T04:07:07;15.25;;;13.95;;
11016;SDS011;54687;50.800;6.772;2022-09-12T04:09:35;15.63;;;14.20;;
11016;SDS011;54687;50.800;6.772;2022-09-12T04:12:02;17.35;;;15.65;;
11016;SDS011;54687;50.800;6.772;2022-09-12T04:14:30;15.57;;;14.07;;
11016;SDS011;54687;50.800;6.772;2022-09-12T04:16:56;15.80;;;14.40;;
11016;SDS011;54687;50.800;6.772;2022-09-12T04:19:23;14.25;;;13.05;;
11016;SDS011;54687;50.800;6.772;2022-09-12T04:21:50;14.77;;;13.48;;
11016;SDS011;54687;50.800;6.772;2022-09-12T04:24:17;15.23;;;13.80;;
11016;SDS011;54687;50.800;6.772;2022-09-12T04:26:45;15.85;;;14.35;;
11016;SDS011;54687;50.800;6.772;2022-09-12T04:29:12;14.77;;;13.48;;
11016;SDS011;54687;50.800;6.772;2022-09-12T04:31:40;14.93;;;13.52;;
11016;SDS011;54687;50.800;6.772;2022-09-12T04:34:07;15.73;;;14.20;;
11016;SDS011;54687;50.800;6.772;2022-09-12T04:36:35;16.50;;;14.88;;
11016;SDS011;54687;50.800;6.772;2022-09-12T04:39:02;15.77;;;14.43;;
11016;SDS011;54687;50.800;6.772;2022-09-12T04:41:30;17.45;;;15.85;;
11016;SDS011;54687;50.800;6.772;2022-09-12T04:44:00;16.27;;;14.75;;
11016;SDS011;54687;50.800;6.772;2022-09-12T04:46:30;15.23;;;13.82;;
11016;SDS011;54687;50.800;6.772;2022-09-12T04:48:57;15.07;;;13.70;;
11016;SDS011;54687;50.800;6.772;2022-09-12T04:51:25;17.00;;;15.18;;
11016;SDS011;54687;50.800;6.772;2022-09-12T04:53:54;15.25;;;13.65;;
11016;SDS011;54687;50.800;6.772;2022-09-12T04:56:22;15.60;;;14.18;;
11016;SDS011;54687;50.800;6.772;2022-09-12T04:58:49;15.65;;;14.18;;
11016;SDS011;54687;50.800;6.772;2022-09-12T05:01:18;14.70;;;13.20;;
11016;SDS011;54687;50.800;6.772;2022-09-12T05:03:46;15.18;;;13.88;;
11016;SDS011;54687;50.800;6.772;2022-09-12T05:06:15;15.65;;;14.25;;
11016;SDS011;54687;50.800;6.772;2022-09-12T05:08:43;16.40;;;14.90;;
11016;SDS011;54687;50.800;6.772;2022-09-12T05:11:10;14.85;;;13.52;;
11016;SDS011;54687;50.800;6.772;2022-09-12T05:13:38;14.82;;;13.43;;
11016;SDS011;54687;50.800;6.772;2022-09-12T05:16:06;16.45;;;14.85;;
11016;SDS011;54687;50.800;6.772;2022-09-12T05:18:35;14.65;;;13.23;;
11016;SDS011;54687;50.800;6.772;2022-09-12T05:21:03;15.13;;;13.73;;
11016;SDS011;54687;50.800;6.772;2022-09-12T05:23:32;17.17;;;15.68;;
11016;SDS011;54687;50.800;6.772;2022-09-12T05:25:59;17.27;;;15.48;;
11016;SDS011;54687;50.800;6.772;2022-09-12T05:28:28;16.48;;;15.00;;
11016;SDS011;54687;50.800;6.772;2022-09-12T05:31:00;16.77;;;15.07;;
11016;SDS011;54687;50.800;6.772;2022-09-12T05:33:28;15.40;;;14.00;;
11016;SDS011;54687;50.800;6.772;2022-09-12T05:35:56;15.60;;;14.20;;
11016;SDS011;54687;50.800;6.772;2022-09-12T05:38:23;15.57;;;14.18;;
11016;SDS011;54687;50.800;6.772;2022-09-12T05:40:53;15.98;;;14.38;;
11016;SDS011;54687;50.800;6.772;2022-09-12T05:43:27;14.48;;;13.15;;
11016;SDS011;54687;50.800;6.772;2022-09-12T05:45:58;14.43;;;13.23;;
11016;SDS011;54687;50.800;6.772;2022-09-12T05:48:26;14.10;;;12.80;;
11016;SDS011;54687;50.800;6.772;2022-09-12T05:50:58;15.02;;;13.70;;
11016;SDS011;54687;50.800;6.772;2022-09-12T05:53:27;14.52;;;13.23;;
11016;SDS011;54687;50.800;6.772;2022-09-12T05:56:00;15.25;;;13.68;;
11016;SDS011;54687;50.800;6.772;2022-09-12T05:58:28;14.63;;;13.43;;
11016;SDS011;54687;50.800;6.772;2022-09-12T06:00:55;14.32;;;12.93;;
11016;SDS011;54687;50.800;6.772;2022-09-12T06:03:26;14.63;;;13.25;;
11016;SDS011;54687;50.800;6.772;2022-09-12T06:05:53;14.75;;;13.45;;
11016;SDS011;54687;50.800;6.772;2022-09-12T06:08:21;14.23;;;12.95;;
11016;SDS011;54687;50.800;6.772;2022-09-12T06:10:47;16.33;;;14.73;;
11016;SDS011;54687;50.800;6.772;2022-09-12T06:13:14;14.57;;;13.27;;
11016;SDS011;54687;50.800;6.772;2022-09-12T06:15:41;16.38;;;14.77;;
11016;SDS011;54687;50.800;6.772;2022-09-12T06:18:08;13.95;;;12.63;;
11016;SDS011;54687;50.800;6.772;2022-09-12T06:20:35;15.32;;;13.73;;
11016;SDS011;54687;50.800;6.772;2022-09-12T06:23:02;16.83;;;15.20;;
11016;SDS011;54687;50.800;6.772;2022-09-12T06:25:30;15.35;;;13.95;;
11016;SDS011;54687;50.800;6.772;2022-09-12T06:27:57;15.07;;;13.65;;
11016;SDS011;54687;50.800;6.772;2022-09-12T06:30:23;15.40;;;13.90;;
11016;SDS011;54687;50.800;6.772;2022-09-12T06:32:51;15.15;;;13.75;;
11016;SDS011;54687;50.800;6.772;2022-09-12T06:35:17;14.77;;;13.38;;
11016;SDS011;54687;50.800;6.772;2022-09-12T06:37:44;13.95;;;12.75;;
11016;SDS011;54687;50.800;6.772;2022-09-12T06:40:10;14.82;;;13.32;;
11016;SDS011;54687;50.800;6.772;2022-09-12T06:42:38;15.60;;;14.13;;
11016;SDS011;54687;50.800;6.772;2022-09-12T06:45:05;15.18;;;13.63;;
11016;SDS011;54687;50.800;6.772;2022-09-12T06:47:34;15.23;;;13.68;;
11016;SDS011;54687;50.800;6.772;2022-09-12T06:50:01;16.58;;;14.88;;
11016;SDS011;54687;50.800;6.772;2022-09-12T06:52:28;14.52;;;13.13;;
11016;SDS011;54687;50.800;6.772;2022-09-12T06:54:55;15.32;;;13.82;;
11016;SDS011;54687;50.800;6.772;2022-09-12T06:57:22;13.95;;;12.65;;
11016;SDS011;54687;50.800;6.772;2022-09-12T06:59:53;14.07;;;12.73;;
11016;SDS011;54687;50.800;6.772;2022-09-12T07:02:20;15.27;;;13.43;;
11016;SDS011;54687;50.800;6.772;2022-09-12T07:04:46;15.35;;;13.75;;
11016;SDS011;54687;50.800;6.772;2022-09-12T07:07:14;16.30;;;14.63;;
11016;SDS011;54687;50.800;6.772;2022-09-12T07:09:40;15.23;;;13.77;;
11016;SDS011;54687;50.800;6.772;2022-09-12T07:12:07;14.88;;;13.38;;
11016;SDS011;54687;50.800;6.772;2022-09-12T07:14:34;15.75;;;14.13;;
11016;SDS011;54687;50.800;6.772;2022-09-12T07:17:02;16.13;;;14.43;;
11016;SDS011;54687;50.800;6.772;2022-09-12T07:19:29;16.52;;;14.93;;
11016;SDS011;54687;50.800;6.772;2022-09-12T07:21:55;15.77;;;14.27;;
11016;SDS011;54687;50.800;6.772;2022-09-12T07:24:22;15.45;;;14.00;;
11016;SDS011;54687;50.800;6.772;2022-09-12T07:26:48;15.55;;;14.18;;
11016;SDS011;54687;50.800;6.772;2022-09-12T07:29:15;16.23;;;14.77;;
11016;SDS011;54687;50.800;6.772;2022-09-12T07:31:42;14.90;;;13.50;;
11016;SDS011;54687;50.800;6.772;2022-09-12T07:34:10;15.77;;;14.32;;
11016;SDS011;54687;50.800;6.772;2022-09-12T07:36:38;14.80;;;13.30;;
11016;SDS011;54687;50.800;6.772;2022-09-12T07:39:04;15.38;;;13.95;;
11016;SDS011;54687;50.800;6.772;2022-09-12T07:41:31;14.32;;;12.95;;
11016;SDS011;54687;50.800;6.772;2022-09-12T07:43:59;14.40;;;13.10;;
11016;SDS011;54687;50.800;6.772;2022-09-12T07:46:28;18.70;;;16.65;;
11016;SDS011;54687;50.800;6.772;2022-09-12T07:48:56;15.90;;;14.40;;
11016;SDS011;54687;50.800;6.772;2022-09-12T07:51:27;13.88;;;12.57;;
11016;SDS011;54687;50.800;6.772;2022-09-12T07:53:56;14.50;;;13.20;;
11016;SDS011;54687;50.800;6.772;2022-09-12T07:56:22;13.32;;;12.13;;
11016;SDS011;54687;50.800;6.772;2022-09-12T07:58:51;13.18;;;11.98;;
11016;SDS011;54687;50.800;6.772;2022-09-12T08:01:18;14.73;;;12.48;;
11016;SDS011;54687;50.800;6.772;2022-09-12T08:03:47;12.57;;;11.48;;
11016;SDS011;54687;50.800;6.772;2022-09-12T08:06:16;13.13;;;11.93;;
11016;SDS011;54687;50.800;6.772;2022-09-12T08:08:46;12.63;;;11.40;;
11016;SDS011;54687;50.800;6.772;2022-09-12T08:11:14;13.52;;;12.13;;
11016;SDS011;54687;50.800;6.772;2022-09-12T08:13:43;13.73;;;12.43;;
11016;SDS011;54687;50.800;6.772;2022-09-12T08:16:11;13.02;;;11.73;;
11016;SDS011;54687;50.800;6.772;2022-09-12T08:18:39;12.38;;;11.27;;
11016;SDS011;54687;50.800;6.772;2022-09-12T08:21:07;13.52;;;12.18;;
11016;SDS011;54687;50.800;6.772;2022-09-12T08:23:37;13.55;;;12.20;;
11016;SDS011;54687;50.800;6.772;2022-09-12T08:26:05;13.68;;;12.15;;
11016;SDS011;54687;50.800;6.772;2022-09-12T08:28:33;12.73;;;11.43;;
11016;SDS011;54687;50.800;6.772;2022-09-12T08:31:01;12.48;;;11.35;;
11016;SDS011;54687;50.800;6.772;2022-09-12T08:33:28;12.73;;;11.65;;
11016;SDS011;54687;50.800;6.772;2022-09-12T08:36:04;11.07;;;10.07;;
11016;SDS011;54687;50.800;6.772;2022-09-12T08:38:33;10.95;;;10.05;;
11016;SDS011;54687;50.800;6.772;2022-09-12T08:41:02;12.27;;;10.77;;
11016;SDS011;54687;50.800;6.772;2022-09-12T08:43:42;11.48;;;10.43;;
11016;SDS011;54687;50.800;6.772;2022-09-12T08:46:20;10.13;;;9.23;;
11016;SDS011;54687;50.800;6.772;2022-09-12T08:48:49;10.43;;;9.43;;
11016;SDS011;54687;50.800;6.772;2022-09-12T08:51:17;9.75;;;8.85;;
11016;SDS011;54687;50.800;6.772;2022-09-12T08:53:46;9.07;;;8.30;;
11016;SDS011;54687;50.800;6.772;2022-09-12T08:56:19;9.48;;;8.65;;
11016;SDS011;54687;50.800;6.772;2022-09-12T08:58:46;8.43;;;7.55;;
11016;SDS011;54687;50.800;6.772;2022-09-12T09:01:14;9.25;;;8.35;;
11016;SDS011;54687;50.800;6.772;2022-09-12T09:03:53;8.68;;;7.80;;
11016;SDS011;54687;50.800;6.772;2022-09-12T09:06:35;7.75;;;6.95;;
11016;SDS011;54687;50.800;6.772;2022-09-12T09:09:24;7.22;;;6.53;;
11016;SDS011;54687;50.800;6.772;2022-09-12T09:12:02;6.43;;;5.80;;
11016;SDS011;54687;50.800;6.772;2022-09-12T09:14:56;7.88;;;5.90;;
11016;SDS011;54687;50.800;6.772;2022-09-12T09:17:46;6.15;;;5.57;;
11016;SDS011;54687;50.800;6.772;2022-09-12T09:20:18;5.80;;;5.30;;
11016;SDS011;54687;50.800;6.772;2022-09-12T09:22:54;5.55;;;5.10;;
11016;SDS011;54687;50.800;6.772;2022-09-12T09:25:29;5.43;;;5.03;;
11016;SDS011;54687;50.800;6.772;2022-09-12T09:28:06;5.10;;;4.60;;
11016;SDS011;54687;50.800;6.772;2022-09-12T09:30:39;6.03;;;5.53;;
11016;SDS011;54687;50.800;6.772;2022-09-12T09:33:09;5.97;;;4.68;;
11016;SDS011;54687;50.800;6.772;2022-09-12T09:35:46;5.28;;;4.88;;
11016;SDS011;54687;50.800;6.772;2022-09-12T09:38:24;5.30;;;4.90;;
11016;SDS011;54687;50.800;6.772;2022-09-12T09:41:03;5.55;;;5.07;;
11016;SDS011;54687;50.800;6.772;2022-09-12T09:43:41;4.30;;;3.92;;
11016;SDS011;54687;50.800;6.772;2022-09-12T09:46:08;5.63;;;4.97;;
11016;SDS011;54687;50.800;6.772;2022-09-12T09:48:36;5.80;;;5.28;;
11016;SDS011;54687;50.800;6.772;2022-09-12T09:51:06;4.60;;;4.30;;
11016;SDS011;54687;50.800;6.772;2022-09-12T09:53:36;4.47;;;3.72;;
11016;SDS011;54687;50.800;6.772;2022-09-12T09:56:08;4.60;;;4.20;;
11016;SDS011;54687;50.800;6.772;2022-09-12T09:58:38;4.03;;;3.72;;
11016;SDS011;54687;50.800;6.772;2022-09-12T10:01:13;4.05;;;3.65;;
11016;SDS011;54687;50.800;6.772;2022-09-12T10:03:46;10.23;;;9.23;;
11016;SDS011;54687;50.800;6.772;2022-09-12T10:06:25;5.13;;;4.72;;
11016;SDS011;54687;50.800;6.772;2022-09-12T10:09:04;4.25;;;3.95;;
11016;SDS011;54687;50.800;6.772;2022-09-12T10:11:46;6.45;;;4.35;;
11016;SDS011;54687;50.800;6.772;2022-09-12T10:14:34;4.47;;;4.15;;
11016;SDS011;54687;50.800;6.772;2022-09-12T10:17:25;4.05;;;3.75;;
11016;SDS011;54687;50.800;6.772;2022-09-12T10:19:53;4.20;;;3.90;;
11016;SDS011;54687;50.800;6.772;2022-09-12T10:22:22;4.00;;;3.70;;
11016;SDS011;54687;50.800;6.772;2022-09-12T10:24:50;4.10;;;3.70;;
11016;SDS011;54687;50.800;6.772;2022-09-12T10:27:21;6.70;;;3.67;;
11016;SDS011;54687;50.800;6.772;2022-09-12T10:29:51;6.63;;;4.40;;
11016;SDS011;54687;50.800;6.772;2022-09-12T10:32:22;4.25;;;3.85;;
11016;SDS011;54687;50.800;6.772;2022-09-12T10:34:55;5.05;;;4.50;;
11016;SDS011;54687;50.800;6.772;2022-09-12T10:37:27;4.93;;;4.53;;
11016;SDS011;54687;50.800;6.772;2022-09-12T10:39:57;4.18;;;3.88;;
11016;SDS011;54687;50.800;6.772;2022-09-12T10:42:41;4.40;;;4.10;;
11016;SDS011;54687;50.800;6.772;2022-09-12T10:45:19;3.88;;;3.58;;
11016;SDS011;54687;50.800;6.772;2022-09-12T10:47:49;4.20;;;3.80;;
11016;SDS011;54687;50.800;6.772;2022-09-12T10:50:21;4.20;;;3.90;;
11016;SDS011;54687;50.800;6.772;2022-09-12T10:52:50;3.70;;;3.40;;
11016;SDS011;54687;50.800;6.772;2022-09-12T10:55:17;3.97;;;3.67;;
11016;SDS011;54687;50.800;6.772;2022-09-12T10:57:52;3.85;;;3.55;;
11016;SDS011;54687;50.800;6.772;2022-09-12T11:00:28;4.18;;;3.80;;
11016;SDS011;54687;50.800;6.772;2022-09-12T11:03:05;3.90;;;3.60;;
11016;SDS011;54687;50.800;6.772;2022-09-12T11:05:50;3.53;;;3.22;;
11016;SDS011;54687;50.800;6.772;2022-09-12T11:08:26;3.58;;;3.28;;
11016;SDS011;54687;50.800;6.772;2022-09-12T11:11:07;4.05;;;3.30;;
11016;SDS011;54687;50.800;6.772;2022-09-12T11:13:49;4.68;;;3.85;;
11016;SDS011;54687;50.800;6.772;2022-09-12T11:16:26;3.70;;;3.35;;
11016;SDS011;54687;50.800;6.772;2022-09-12T11:19:14;4.13;;;3.83;;
11016;SDS011;54687;50.800;6.772;2022-09-12T11:22:00;4.00;;;3.70;;
11016;SDS011;54687;50.800;6.772;2022-09-12T11:24:40;3.90;;;3.25;;
11016;SDS011;54687;50.800;6.772;2022-09-12T11:27:21;4.15;;;3.33;;
11016;SDS011;54687;50.800;6.772;2022-09-12T11:29:58;4.65;;;3.50;;
11016;SDS011;54687;50.800;6.772;2022-09-12T11:35:28;3.83;;;3.53;;
11016;SDS011;54687;50.800;6.772;2022-09-12T11:37:58;3.03;;;2.83;;
11016;SDS011;54687;50.800;6.772;2022-09-12T11:40:41;3.58;;;3.38;;
11016;SDS011;54687;50.800;6.772;2022-09-12T11:43:14;3.53;;;3.15;;
11016;SDS011;54687;50.800;6.772;2022-09-12T11:45:50;3.17;;;2.97;;
11016;SDS011;54687;50.800;6.772;2022-09-12T11:48:20;4.30;;;3.20;;
11016;SDS011;54687;50.800;6.772;2022-09-12T11:50:57;3.78;;;3.47;;
11016;SDS011;54687;50.800;6.772;2022-09-12T11:53:27;3.22;;;3.03;;
11016;SDS011;54687;50.800;6.772;2022-09-12T11:56:01;5.78;;;3.80;;
11016;SDS011;54687;50.800;6.772;2022-09-12T11:58:31;3.65;;;3.35;;
11016;SDS011;54687;50.800;6.772;2022-09-12T12:01:01;3.65;;;3.30;;
11016;SDS011;54687;50.800;6.772;2022-09-12T12:03:38;5.00;;;3.85;;
11016;SDS011;54687;50.800;6.772;2022-09-12T12:06:11;3.70;;;3.05;;
11016;SDS011;54687;50.800;6.772;2022-09-12T12:08:43;3.38;;;3.08;;
11016;SDS011;54687;50.800;6.772;2022-09-12T12:11:11;3.13;;;2.92;;
11016;SDS011;54687;50.800;6.772;2022-09-12T12:13:40;5.03;;;3.67;;
11016;SDS011;54687;50.800;6.772;2022-09-12T12:16:12;4.25;;;3.45;;
11016;SDS011;54687;50.800;6.772;2022-09-12T12:18:43;3.40;;;3.20;;
11016;SDS011;54687;50.800;6.772;2022-09-12T12:21:20;3.70;;;3.30;;
11016;SDS011;54687;50.800;6.772;2022-09-12T12:24:02;3.83;;;3.50;;
11016;SDS011;54687;50.800;6.772;2022-09-12T12:26:54;4.30;;;3.10;;
11016;SDS011;54687;50.800;6.772;2022-09-12T12:29:36;3.08;;;2.88;;
11016;SDS011;54687;50.800;6.772;2022-09-12T12:32:25;3.15;;;2.95;;
11016;SDS011;54687;50.800;6.772;2022-09-12T12:38:02;3.47;;;3.17;;
11016;SDS011;54687;50.800;6.772;2022-09-12T12:40:31;3.53;;;3.22;;
11016;SDS011;54687;50.800;6.772;2022-09-12T12:43:02;4.10;;;3.30;;
11016;SDS011;54687;50.800;6.772;2022-09-12T12:45:44;3.50;;;3.20;;
11016;SDS011;54687;50.800;6.772;2022-09-12T12:48:42;3.25;;;3.03;;
11016;SDS011;54687;50.800;6.772;2022-09-12T12:51:21;3.30;;;3.00;;
11016;SDS011;54687;50.800;6.772;2022-09-12T12:54:25;3.38;;;3.00;;
11016;SDS011;54687;50.800;6.772;2022-09-12T12:57:01;3.60;;;3.17;;
11016;SDS011;54687;50.800;6.772;2022-09-12T12:59:30;2.65;;;2.55;;
11016;SDS011;54687;50.800;6.772;2022-09-12T13:01:57;3.13;;;2.92;;
11016;SDS011;54687;50.800;6.772;2022-09-12T13:04:27;3.38;;;3.17;;
11016;SDS011;54687;50.800;6.772;2022-09-12T13:06:57;3.35;;;3.13;;
11016;SDS011;54687;50.800;6.772;2022-09-12T13:09:32;3.10;;;2.80;;
11016;SDS011;54687;50.800;6.772;2022-09-12T13:12:04;3.67;;;3.38;;
11016;SDS011;54687;50.800;6.772;2022-09-12T13:14:35;3.30;;;3.10;;
11016;SDS011;54687;50.800;6.772;2022-09-12T13:17:13;3.55;;;2.95;;
11016;SDS011;54687;50.800;6.772;2022-09-12T13:19:44;3.65;;;2.80;;
11016;SDS011;54687;50.800;6.772;2022-09-12T13:22:12;4.20;;;2.97;;
11016;SDS011;54687;50.800;6.772;2022-09-12T13:24:42;2.58;;;2.47;;
11016;SDS011;54687;50.800;6.772;2022-09-12T13:27:15;3.30;;;3.00;;
11016;SDS011;54687;50.800;6.772;2022-09-12T13:29:44;3.92;;;3.63;;
11016;SDS011;54687;50.800;6.772;2022-09-12T13:32:10;4.32;;;3.10;;
11016;SDS011;54687;50.800;6.772;2022-09-12T13:34:40;3.90;;;3.15;;
11016;SDS011;54687;50.800;6.772;2022-09-12T13:40:24;5.03;;;2.70;;
11016;SDS011;54687;50.800;6.772;2022-09-12T13:43:11;3.22;;;3.00;;
11016;SDS011;54687;50.800;6.772;2022-09-12T13:45:40;4.05;;;3.38;;
11016;SDS011;54687;50.800;6.772;2022-09-12T13:48:09;3.63;;;3.10;;
11016;SDS011;54687;50.800;6.772;2022-09-12T13:50:41;3.40;;;3.10;;
11016;SDS011;54687;50.800;6.772;2022-09-12T13:53:14;3.50;;;3.20;;
11016;SDS011;54687;50.800;6.772;2022-09-12T13:55:46;3.30;;;3.00;;
11016;SDS011;54687;50.800;6.772;2022-09-12T13:58:18;3.00;;;2.80;;
11016;SDS011;54687;50.800;6.772;2022-09-12T14:00:59;3.50;;;3.20;;
11016;SDS011;54687;50.800;6.772;2022-09-12T14:03:27;3.63;;;3.08;;
11016;SDS011;54687;50.800;6.772;2022-09-12T14:06:13;3.10;;;2.90;;
11016;SDS011;54687;50.800;6.772;2022-09-12T14:08:40;3.28;;;3.08;;
11016;SDS011;54687;50.800;6.772;2022-09-12T14:11:10;3.03;;;2.83;;
11016;SDS011;54687;50.800;6.772;2022-09-12T14:13:44;3.40;;;3.20;;
11016;SDS011;54687;50.800;6.772;2022-09-12T14:16:12;3.30;;;3.00;;
11016;SDS011;54687;50.800;6.772;2022-09-12T14:18:41;3.08;;;2.88;;
11016;SDS011;54687;50.800;6.772;2022-09-12T14:21:09;3.35;;;2.90;;
11016;SDS011;54687;50.800;6.772;2022-09-12T14:23:38;3.15;;;2.95;;
11016;SDS011;54687;50.800;6.772;2022-09-12T14:26:08;2.92;;;2.70;;
11016;SDS011;54687;50.800;6.772;2022-09-12T14:31:19;3.53;;;3.22;;
11016;SDS011;54687;50.800;6.772;2022-09-12T14:33:48;3.95;;;3.58;;
11016;SDS011;54687;50.800;6.772;2022-09-12T14:36:19;3.45;;;3.10;;
11016;SDS011;54687;50.800;6.772;2022-09-12T14:38:50;4.47;;;3.20;;
11016;SDS011;54687;50.800;6.772;2022-09-12T14:41:22;2.95;;;2.75;;
11016;SDS011;54687;50.800;6.772;2022-09-12T14:43:53;3.30;;;3.10;;
11016;SDS011;54687;50.800;6.772;2022-09-12T14:46:23;3.25;;;3.05;;
11016;SDS011;54687;50.800;6.772;2022-09-12T14:48:54;3.20;;;2.97;;
11016;SDS011;54687;50.800;6.772;2022-09-12T14:51:24;3.50;;;3.20;;
11016;SDS011;54687;50.800;6.772;2022-09-12T14:53:53;3.70;;;3.28;;
11016;SDS011;54687;50.800;6.772;2022-09-12T14:56:21;3.08;;;2.70;;
11016;SDS011;54687;50.800;6.772;2022-09-12T14:59:25;3.03;;;2.60;;
11016;SDS011;54687;50.800;6.772;2022-09-12T15:04:47;2.22;;;2.03;;
11016;SDS011;54687;50.800;6.772;2022-09-12T15:07:17;1.92;;;1.73;;
11016;SDS011;54687;50.800;6.772;2022-09-12T15:09:51;2.17;;;1.90;;
11016;SDS011;54687;50.800;6.772;2022-09-12T15:12:19;2.78;;;1.63;;
11016;SDS011;54687;50.800;6.772;2022-09-12T15:14:46;1.98;;;1.75;;
11016;SDS011;54687;50.800;6.772;2022-09-12T15:17:12;1.50;;;1.40;;